Terminal Aerodrome Forecast
Issued by NWS Brownsville, TX

Home | Current Version | Previous Version | Text Only | Print | Product List | Glossary On
Versions: 1 2 3 4 5 6 7 8 9 10 11 12
000
FTUS44 KBRO 300526
TAFMFE
TAF
KMFE 300526Z 3006/3106 13005KT P6SM SKC
     FM301700 14012KT P6SM SCT040
     FM302100 12015KT P6SM SCT050 BKN250=

USA.gov is the U.S. government's official web portal to all federal, state and local government web resources and services.